Time;durP1;ratioP1;P1;durP2;ratioP2;P2;SDS_P1;SDS_P2;PMS_P1;PMS_P2;Temp;Humidity;BMP_temperature;BMP_pressure;BME280_temperature;BME280_humidity;BME280_pressure;Samples;Min_cycle;Max_cycle;Signal;HPM_P1;HPM_P2
2021/07/28 00:00:05;;;;;;;;;;;;;;;;;;2126132;27;19934;-41
2021/07/28 00:01:06;;;;;;;;;;;;;;;;;;2124065;27;19923;-41
2021/07/28 00:02:07;;;;;;;;;;;;;;;;;;2123394;28;19924;-41
2021/07/28 00:03:08;;;;;;;;;;;;;;;;;;2123041;27;19923;-42
2021/07/28 00:04:09;;;;;;;;;;;;;;;;;;2123335;27;19930;-41
2021/07/28 00:05:10;;;;;;;;;;;;;;;;;;2123341;28;19923;-42
2021/07/28 00:06:10;;;;;;;;;;;;;;;;;;2123415;27;19938;-42
2021/07/28 00:07:11;;;;;;;;;;;;;;;;;;2123275;27;19923;-41
2021/07/28 00:08:12;;;;;;;;;;;;;;;;;;2123339;28;20010;-41
2021/07/28 00:09:13;;;;;;;;;;;;;;;;;;2122015;27;19946;-41
2021/07/28 00:10:14;;;;;;;;;;;;;;;;;;2131658;27;19923;-41
2021/07/28 00:11:15;;;;;;;;;;;;;;;;;;2131963;27;19944;-41
2021/07/28 00:12:15;;;;;;;;;;;;;;;;;;2123379;27;19962;-41
2021/07/28 00:13:16;;;;;;;;;;;;;;;;;;2131647;27;19945;-41
2021/07/28 00:14:17;;;;;;;;;;;;;;;;;;2131887;27;19929;-41
2021/07/28 00:15:18;;;;;;;;;;;;;;;;;;2123456;27;19923;-44
2021/07/28 00:16:19;;;;;;;;;;;;;;;;;;2131808;27;19943;-41
2021/07/28 00:17:20;;;;;;;;;;;;;;;;;;2131276;27;19972;-41
2021/07/28 00:18:35;;;;;;;;;;;;;;;;;;2124065;27;20296;-41
2021/07/28 00:19:50;;;;;;;;;;;;;;;;;;2131779;27;19927;-41
2021/07/28 00:23:29;;;;;;;;;;;;;;;;;;2115549;27;20376;-41
2021/07/28 00:24:31;;;;;;;;;;;;;;;;;;2126788;27;19923;-43
2021/07/28 00:25:32;;;;;;;;;;;;;;;;;;2131688;27;19923;-42
2021/07/28 00:26:32;;;;;;;;;;;;;;;;;;2127062;27;19927;-41
2021/07/28 00:27:33;;;;;;;;;;;;;;;;;;2128069;27;19923;-41
2021/07/28 00:28:34;;;;;;;;;;;;;;;;;;2131776;27;20185;-41
2021/07/28 00:29:35;;;;;;;;;;;;;;;;;;2126466;27;20015;-41
2021/07/28 00:30:36;;;;;;;;;;;;;;;;;;2124824;27;19927;-41
2021/07/28 00:31:36;;;;;;;;;;;;;;;;;;2122370;27;20027;-41
2021/07/28 00:32:37;;;;;;;;;;;;;;;;;;2121280;27;20007;-41
2021/07/28 00:33:38;;;;;;;;;;;;;;;;;;2124703;27;20022;-41
2021/07/28 00:34:41;;;;;;;;;;;;;;;;;;2123098;28;19923;-41
2021/07/28 00:35:41;;;;;;;;;;;;;;;;;;2123273;27;20018;-41
2021/07/28 00:36:42;;;;;;;;;;;;;;;;;;2124011;27;20014;-41
2021/07/28 00:37:44;;;;;;;;;;;;;;;;;;2123008;28;20025;-41
2021/07/28 00:38:45;;;;;;;;;;;;;;;;;;2121018;27;20018;-41
2021/07/28 00:39:46;;;;;;;;;;;;;;;;;;2131254;27;20314;-41
2021/07/28 00:40:47;;;;;;;;;;;;;;;;;;2131784;27;19923;-41
2021/07/28 00:41:48;;;;;;;;;;;;;;;;;;2125403;27;19971;-41
2021/07/28 00:42:49;;;;;;;;;;;;;;;;;;2122927;27;20336;-41
2021/07/28 00:43:49;;;;;;;;;;;;;;;;;;2123028;28;19923;-41
2021/07/28 00:44:50;;;;;;;;;;;;;;;;;;2123277;27;19930;-41
2021/07/28 00:45:51;;;;;;;;;;;;;;;;;;2114563;28;20304;-41
2021/07/28 00:46:52;;;;;;;;;;;;;;;;;;2114528;28;19924;-41
2021/07/28 00:47:52;;;;;;;;;;;;;;;;;;2122105;27;19929;-41
2021/07/28 00:48:53;;;;;;;;;;;;;;;;;;2123023;28;19953;-41
2021/07/28 00:49:54;;;;;;;;;;;;;;;;;;2123220;28;19947;-42
2021/07/28 00:50:55;;;;;;;;;;;;;;;;;;2122960;27;19923;-41
2021/07/28 00:52:02;;;;;;;;;;;;;;;;;;2131605;27;20082;-42
2021/07/28 00:53:03;;;;;;;;;;;;;;;;;;2128712;27;20067;-42
2021/07/28 00:54:03;;;;;;;;;;;;;;;;;;2123419;27;19971;-42
2021/07/28 00:55:04;;;;;;;;;;;;;;;;;;2122959;28;19930;-42
2021/07/28 00:56:05;;;;;;;;;;;;;;;;;;2122146;27;19929;-42
2021/07/28 00:57:06;;;;;;;;;;;;;;;;;;2126011;27;19975;-42
2021/07/28 00:58:06;;;;;;;;;;;;;;;;;;2131500;27;20314;-42
2021/07/28 00:59:07;;;;;;;;;;;;;;;;;;2127915;27;20436;-42
2021/07/28 01:00:08;;;;;;;;;;;;;;;;;;2124462;27;20022;-42
2021/07/28 01:01:09;;;;;;;;;;;;;;;;;;2122933;28;19962;-43
2021/07/28 01:02:10;;;;;;;;;;;;;;;;;;2121020;27;19927;-42
2021/07/28 01:03:11;;;;;;;;;;;;;;;;;;2128320;27;19967;-43
2021/07/28 01:04:12;;;;;;;;;;;;;;;;;;2131268;27;20022;-42
2021/07/28 01:05:12;;;;;;;;;;;;;;;;;;2126112;27;20008;-42
2021/07/28 01:06:13;;;;;;;;;;;;;;;;;;2122778;27;19923;-42
2021/07/28 01:07:14;;;;;;;;;;;;;;;;;;2122728;28;20010;-42
2021/07/28 01:08:15;;;;;;;;;;;;;;;;;;2121114;27;20412;-41
2021/07/28 01:09:16;;;;;;;;;;;;;;;;;;2129541;27;19927;-42
2021/07/28 01:10:17;;;;;;;;;;;;;;;;;;2131427;27;19923;-41
2021/07/28 01:11:18;;;;;;;;;;;;;;;;;;2124390;27;19925;-41
2021/07/28 01:12:18;;;;;;;;;;;;;;;;;;2130085;27;19923;-42
2021/07/28 01:13:26;;;;;;;;;;;;;;;;;;2131376;27;19923;-42
2021/07/28 01:14:27;;;;;;;;;;;;;;;;;;2123318;27;24381;-42
2021/07/28 01:15:40;;;;;;;;;;;;;;;;;;2131022;27;19922;-42
2021/07/28 01:16:41;;;;;;;;;;;;;;;;;;2130794;27;19945;-42
2021/07/28 01:17:42;;;;;;;;;;;;;;;;;;2123808;27;19934;-43
2021/07/28 01:18:42;;;;;;;;;;;;;;;;;;2131528;27;19927;-42
2021/07/28 01:19:43;;;;;;;;;;;;;;;;;;2130136;27;19930;-41
2021/07/28 01:20:44;;;;;;;;;;;;;;;;;;2122975;27;19948;-42
2021/07/28 01:21:45;;;;;;;;;;;;;;;;;;2122839;28;19977;-42
2021/07/28 01:22:46;;;;;;;;;;;;;;;;;;2122112;27;19927;-42
2021/07/28 01:23:47;;;;;;;;;;;;;;;;;;2123513;27;19923;-42
2021/07/28 01:24:47;;;;;;;;;;;;;;;;;;2122571;28;19923;-41
2021/07/28 01:25:48;;;;;;;;;;;;;;;;;;2121659;27;19923;-45
2021/07/28 01:26:49;;;;;;;;;;;;;;;;;;2126643;27;19997;-41
2021/07/28 01:27:50;;;;;;;;;;;;;;;;;;2131253;27;19923;-41
2021/07/28 01:28:50;;;;;;;;;;;;;;;;;;2126664;27;20380;-42
2021/07/28 01:29:51;;;;;;;;;;;;;;;;;;2127869;27;19930;-42
2021/07/28 01:30:52;;;;;;;;;;;;;;;;;;2131377;27;20407;-41
2021/07/28 01:31:54;;;;;;;;;;;;;;;;;;2126777;27;19923;-42
2021/07/28 01:32:54;;;;;;;;;;;;;;;;;;2128548;27;19923;-43
2021/07/28 01:33:55;;;;;;;;;;;;;;;;;;2131244;27;20383;-42
2021/07/28 01:34:56;;;;;;;;;;;;;;;;;;2125251;27;19930;-41
2021/07/28 01:35:57;;;;;;;;;;;;;;;;;;2129305;27;19927;-41
2021/07/28 01:36:57;;;;;;;;;;;;;;;;;;2131426;27;19923;-42
2021/07/28 01:37:58;;;;;;;;;;;;;;;;;;2124612;27;19931;-42
2021/07/28 01:38:59;;;;;;;;;;;;;;;;;;2129998;27;19923;-42
2021/07/28 01:40:00;;;;;;;;;;;;;;;;;;2131296;27;20004;-41
2021/07/28 01:41:01;;;;;;;;;;;;;;;;;;2125422;27;19923;-43
2021/07/28 01:42:02;;;;;;;;;;;;;;;;;;2123197;27;19923;-42
2021/07/28 01:43:02;;;;;;;;;;;;;;;;;;2123258;27;20376;-42
2021/07/28 01:44:03;;;;;;;;;;;;;;;;;;2124544;27;19930;-41
2021/07/28 01:45:04;;;;;;;;;;;;;;;;;;2124214;27;20311;-43
2021/07/28 01:46:05;;;;;;;;;;;;;;;;;;2124244;28;19976;-41
2021/07/28 01:47:05;;;;;;;;;;;;;;;;;;2122507;27;19928;-44
2021/07/28 01:48:06;;;;;;;;;;;;;;;;;;2132653;27;19927;-42
2021/07/28 01:49:07;;;;;;;;;;;;;;;;;;2132866;27;19946;-42
2021/07/28 01:50:08;;;;;;;;;;;;;;;;;;2125626;27;20055;-42
2021/07/28 01:51:09;;;;;;;;;;;;;;;;;;2124270;28;19983;-42
2021/07/28 01:52:10;;;;;;;;;;;;;;;;;;2122762;27;20088;-42
2021/07/28 01:53:10;;;;;;;;;;;;;;;;;;2124865;27;19923;-42
2021/07/28 01:54:11;;;;;;;;;;;;;;;;;;2124187;28;19927;-42
2021/07/28 01:55:12;;;;;;;;;;;;;;;;;;2124186;28;19948;-42
2021/07/28 01:56:27;;;;;;;;;;;;;;;;;;2125079;27;19992;-42
2021/07/28 01:57:27;;;;;;;;;;;;;;;;;;2124135;28;20014;-42
2021/07/28 01:58:29;;;;;;;;;;;;;;;;;;2122666;27;19930;-42
2021/07/28 01:59:35;;;;;;;;;;;;;;;;;;2127814;27;20021;-42
2021/07/28 02:00:36;;;;;;;;;;;;;;;;;;2132712;27;20288;-42
2021/07/28 02:01:37;;;;;;;;;;;;;;;;;;2126873;27;20017;-42
2021/07/28 02:02:41;;;;;;;;;;;;;;;;;;2125687;27;19967;-42
2021/07/28 02:03:42;;;;;;;;;;;;;;;;;;2124096;28;20400;-42
2021/07/28 02:04:43;;;;;;;;;;;;;;;;;;2123264;27;19973;-42
2021/07/28 02:05:44;;;;;;;;;;;;;;;;;;2124465;27;20454;-41
2021/07/28 02:06:45;;;;;;;;;;;;;;;;;;2124226;28;19950;-42
2021/07/28 02:07:45;;;;;;;;;;;;;;;;;;2121922;27;20402;-42
2021/07/28 02:08:47;;;;;;;;;;;;;;;;;;2132319;27;20475;-42
2021/07/28 02:09:48;;;;;;;;;;;;;;;;;;2132577;27;20456;-42
2021/07/28 02:10:49;;;;;;;;;;;;;;;;;;2124581;27;19937;-42
2021/07/28 02:11:49;;;;;;;;;;;;;;;;;;2132437;27;19923;-42
2021/07/28 02:12:50;;;;;;;;;;;;;;;;;;2132552;27;19930;-41
2021/07/28 02:13:51;;;;;;;;;;;;;;;;;;2124431;27;19929;-42
2021/07/28 02:14:52;;;;;;;;;;;;;;;;;;2132615;27;19923;-42
2021/07/28 02:15:53;;;;;;;;;;;;;;;;;;2132661;27;19923;-42
2021/07/28 02:16:55;;;;;;;;;;;;;;;;;;2124237;27;20399;-42
2021/07/28 02:17:56;;;;;;;;;;;;;;;;;;2132425;27;19927;-42
2021/07/28 02:18:57;;;;;;;;;;;;;;;;;;2132529;27;19927;-41
2021/07/28 02:19:57;;;;;;;;;;;;;;;;;;2122962;27;19933;-42
2021/07/28 02:20:58;;;;;;;;;;;;;;;;;;2124044;28;20051;-42
2021/07/28 02:21:59;;;;;;;;;;;;;;;;;;2123707;27;19923;-42
2021/07/28 02:23:00;;;;;;;;;;;;;;;;;;2124193;27;19976;-42
2021/07/28 02:24:01;;;;;;;;;;;;;;;;;;2124006;28;19930;-42
2021/07/28 02:25:02;;;;;;;;;;;;;;;;;;2123651;27;19976;-42
2021/07/28 02:26:02;;;;;;;;;;;;;;;;;;2124167;27;19923;-42
2021/07/28 02:27:03;;;;;;;;;;;;;;;;;;2123979;28;20408;-43
2021/07/28 02:28:04;;;;;;;;;;;;;;;;;;2122810;27;19930;-42
2021/07/28 02:29:05;;;;;;;;;;;;;;;;;;2124869;27;19923;-42
2021/07/28 02:30:05;;;;;;;;;;;;;;;;;;2123910;28;20311;-42
2021/07/28 02:31:06;;;;;;;;;;;;;;;;;;2122601;27;19927;-42
2021/07/28 02:32:07;;;;;;;;;;;;;;;;;;2128277;27;19930;-41
2021/07/28 02:33:08;;;;;;;;;;;;;;;;;;2132593;27;20299;-42
2021/07/28 02:34:09;;;;;;;;;;;;;;;;;;2127363;27;20303;-42
2021/07/28 02:35:12;;;;;;;;;;;;;;;;;;2125828;27;19923;-42
2021/07/28 02:36:13;;;;;;;;;;;;;;;;;;2123909;28;20347;-42
2021/07/28 02:37:13;;;;;;;;;;;;;;;;;;2122144;27;19923;-41
2021/07/28 02:38:14;;;;;;;;;;;;;;;;;;2125571;27;19923;-42
2021/07/28 02:39:15;;;;;;;;;;;;;;;;;;2123835;28;19923;-43
2021/07/28 02:40:16;;;;;;;;;;;;;;;;;;2121852;27;19928;-42
2021/07/28 02:41:17;;;;;;;;;;;;;;;;;;2130828;27;19971;-42
2021/07/28 02:42:18;;;;;;;;;;;;;;;;;;2132366;27;19975;-42
2021/07/28 02:43:18;;;;;;;;;;;;;;;;;;2126445;27;19924;-42
2021/07/28 02:44:19;;;;;;;;;;;;;;;;;;2124395;27;19923;-41
2021/07/28 02:45:20;;;;;;;;;;;;;;;;;;2123982;28;20017;-41
2021/07/28 02:46:21;;;;;;;;;;;;;;;;;;2123845;27;20284;-42
2021/07/28 02:47:22;;;;;;;;;;;;;;;;;;2123758;27;19930;-41
2021/07/28 02:48:23;;;;;;;;;;;;;;;;;;2123822;28;20341;-42
2021/07/28 02:49:23;;;;;;;;;;;;;;;;;;2122276;27;19935;-41
2021/07/28 02:50:24;;;;;;;;;;;;;;;;;;2132270;27;19923;-42
2021/07/28 02:51:25;;;;;;;;;;;;;;;;;;2132324;27;19923;-42
2021/07/28 02:52:26;;;;;;;;;;;;;;;;;;2122462;27;19950;-42
2021/07/28 02:53:27;;;;;;;;;;;;;;;;;;2132447;27;19933;-42
2021/07/28 02:54:27;;;;;;;;;;;;;;;;;;2131850;27;20303;-43
2021/07/28 02:55:28;;;;;;;;;;;;;;;;;;2124425;27;20402;-42
2021/07/28 02:56:29;;;;;;;;;;;;;;;;;;2123905;28;19924;-42
2021/07/28 02:57:30;;;;;;;;;;;;;;;;;;2123656;28;20391;-42
2021/07/28 02:58:31;;;;;;;;;;;;;;;;;;2124037;27;20304;-42
2021/07/28 02:59:32;;;;;;;;;;;;;;;;;;2132246;27;19923;-42
2021/07/28 03:00:34;;;;;;;;;;;;;;;;;;2131439;27;19922;-42
2021/07/28 03:01:34;;;;;;;;;;;;;;;;;;2124072;27;19964;-42
2021/07/28 03:02:35;;;;;;;;;;;;;;;;;;2123772;28;19923;-42
2021/07/28 03:03:36;;;;;;;;;;;;;;;;;;2123456;27;20315;-42
2021/07/28 03:04:37;;;;;;;;;;;;;;;;;;2123999;27;19930;-42
2021/07/28 03:05:38;;;;;;;;;;;;;;;;;;2123624;28;19924;-42
2021/07/28 03:06:39;;;;;;;;;;;;;;;;;;2122795;27;19923;-41
2021/07/28 03:07:39;;;;;;;;;;;;;;;;;;2127054;27;20041;-41
2021/07/28 03:08:40;;;;;;;;;;;;;;;;;;2132198;27;19923;-41
2021/07/28 03:09:41;;;;;;;;;;;;;;;;;;2128125;27;19923;-42
2021/07/28 03:10:42;;;;;;;;;;;;;;;;;;2127354;27;19962;-41
2021/07/28 03:11:43;;;;;;;;;;;;;;;;;;2132354;27;19923;-42
2021/07/28 03:12:44;;;;;;;;;;;;;;;;;;2127093;27;19923;-41
2021/07/28 03:13:44;;;;;;;;;;;;;;;;;;2129075;27;19927;-42
2021/07/28 03:14:45;;;;;;;;;;;;;;;;;;2132214;27;19923;-42
2021/07/28 03:15:49;;;;;;;;;;;;;;;;;;2126481;27;19924;-42
2021/07/28 03:16:51;;;;;;;;;;;;;;;;;;2130158;27;20025;-41
2021/07/28 03:17:52;;;;;;;;;;;;;;;;;;2132068;27;19923;-42
2021/07/28 03:18:53;;;;;;;;;;;;;;;;;;2125263;27;19938;-43
2021/07/28 03:19:53;;;;;;;;;;;;;;;;;;2131029;27;20419;-41
2021/07/28 03:20:54;;;;;;;;;;;;;;;;;;2132271;27;19930;-44
2021/07/28 03:21:55;;;;;;;;;;;;;;;;;;2124456;27;19976;-43
2021/07/28 03:22:56;;;;;;;;;;;;;;;;;;2131614;27;19979;-42
2021/07/28 03:23:57;;;;;;;;;;;;;;;;;;2132143;27;19934;-42
2021/07/28 03:24:58;;;;;;;;;;;;;;;;;;2125048;27;19923;-42
2021/07/28 03:25:58;;;;;;;;;;;;;;;;;;2123455;27;20461;-42
2021/07/28 03:26:59;;;;;;;;;;;;;;;;;;2123577;28;20005;-41
2021/07/28 03:28:00;;;;;;;;;;;;;;;;;;2122313;27;20390;-42
2021/07/28 03:29:01;;;;;;;;;;;;;;;;;;2131913;27;19922;-42
2021/07/28 03:30:01;;;;;;;;;;;;;;;;;;2132213;27;19922;-42
2021/07/28 03:31:02;;;;;;;;;;;;;;;;;;2124394;27;19976;-43
2021/07/28 03:32:03;;;;;;;;;;;;;;;;;;2123500;28;19923;-42
2021/07/28 03:33:04;;;;;;;;;;;;;;;;;;2123497;28;19930;-42
2021/07/28 03:34:05;;;;;;;;;;;;;;;;;;2123519;27;19923;-42
2021/07/28 03:35:06;;;;;;;;;;;;;;;;;;2132097;27;19927;-42
2021/07/28 03:36:07;;;;;;;;;;;;;;;;;;2131605;27;19927;-42
2021/07/28 03:37:07;;;;;;;;;;;;;;;;;;2124225;27;19924;-42
2021/07/28 03:38:08;;;;;;;;;;;;;;;;;;2132123;27;19923;-41
2021/07/28 03:39:09;;;;;;;;;;;;;;;;;;2131067;27;20272;-42
2021/07/28 03:40:10;;;;;;;;;;;;;;;;;;2123788;27;20291;-42
2021/07/28 03:41:10;;;;;;;;;;;;;;;;;;2123566;28;19971;-42
2021/07/28 03:42:11;;;;;;;;;;;;;;;;;;2123073;28;19923;-42
2021/07/28 03:43:13;;;;;;;;;;;;;;;;;;2125982;27;19973;-42
2021/07/28 03:44:14;;;;;;;;;;;;;;;;;;2132094;27;20021;-42
2021/07/28 03:45:14;;;;;;;;;;;;;;;;;;2128770;27;20415;-42
2021/07/28 03:46:15;;;;;;;;;;;;;;;;;;2127185;27;19930;-42
2021/07/28 03:47:16;;;;;;;;;;;;;;;;;;2131933;27;20299;-42
2021/07/28 03:48:17;;;;;;;;;;;;;;;;;;2127536;27;19922;-42
2021/07/28 03:49:18;;;;;;;;;;;;;;;;;;2125152;27;19927;-42
2021/07/28 03:50:18;;;;;;;;;;;;;;;;;;2123406;28;19923;-41
2021/07/28 03:51:19;;;;;;;;;;;;;;;;;;2121499;27;19923;-43
2021/07/28 03:52:20;;;;;;;;;;;;;;;;;;2127427;27;19923;-42
2021/07/28 03:53:21;;;;;;;;;;;;;;;;;;2131905;27;19997;-42
2021/07/28 03:54:22;;;;;;;;;;;;;;;;;;2126217;27;19923;-42
2021/07/28 03:55:22;;;;;;;;;;;;;;;;;;2129755;27;20021;-42
2021/07/28 03:56:23;;;;;;;;;;;;;;;;;;2132086;27;20403;-42
2021/07/28 03:57:24;;;;;;;;;;;;;;;;;;2126313;27;20174;-42
2021/07/28 03:58:25;;;;;;;;;;;;;;;;;;2124271;27;20315;-42
2021/07/28 03:59:26;;;;;;;;;;;;;;;;;;2123308;28;19927;-42
2021/07/28 04:00:27;;;;;;;;;;;;;;;;;;2121306;27;19949;-42
2021/07/28 04:01:28;;;;;;;;;;;;;;;;;;2131199;27;20014;-42
2021/07/28 04:02:29;;;;;;;;;;;;;;;;;;2131820;27;20307;-42
2021/07/28 04:03:30;;;;;;;;;;;;;;;;;;2123742;27;20452;-42
2021/07/28 04:04:31;;;;;;;;;;;;;;;;;;2131757;27;19975;-42
2021/07/28 04:05:31;;;;;;;;;;;;;;;;;;2131867;27;20009;-43
2021/07/28 04:06:32;;;;;;;;;;;;;;;;;;2125245;27;19934;-42
2021/07/28 04:07:33;;;;;;;;;;;;;;;;;;2122990;27;20403;-42
2021/07/28 04:08:34;;;;;;;;;;;;;;;;;;2123460;28;19923;-42
2021/07/28 04:09:35;;;;;;;;;;;;;;;;;;2122134;27;19923;-42
2021/07/28 04:10:37;;;;;;;;;;;;;;;;;;2131849;27;19923;-42
2021/07/28 04:11:38;;;;;;;;;;;;;;;;;;2131834;27;20013;-42
2021/07/28 04:12:39;;;;;;;;;;;;;;;;;;2124621;27;19923;-43
2021/07/28 04:13:39;;;;;;;;;;;;;;;;;;2123178;28;19930;-44
2021/07/28 04:14:41;;;;;;;;;;;;;;;;;;2122950;27;19923;-43
2021/07/28 04:15:41;;;;;;;;;;;;;;;;;;2124056;27;20312;-44
2021/07/28 04:16:42;;;;;;;;;;;;;;;;;;2131945;27;19930;-44
2021/07/28 04:17:43;;;;;;;;;;;;;;;;;;2130565;27;19923;-43
2021/07/28 04:18:44;;;;;;;;;;;;;;;;;;2124842;27;19952;-43
2021/07/28 04:19:49;;;;;;;;;;;;;;;;;;2131910;27;19930;-43
2021/07/28 04:20:50;;;;;;;;;;;;;;;;;;2127047;27;19923;-43
2021/07/28 04:21:50;;;;;;;;;;;;;;;;;;2126837;27;20013;-43
2021/07/28 04:22:51;;;;;;;;;;;;;;;;;;2131677;27;19923;-43
2021/07/28 04:23:52;;;;;;;;;;;;;;;;;;2127464;27;19930;-43
2021/07/28 04:24:53;;;;;;;;;;;;;;;;;;2123916;27;20307;-43
2021/07/28 04:25:53;;;;;;;;;;;;;;;;;;2123142;28;19924;-43
2021/07/28 04:26:54;;;;;;;;;;;;;;;;;;2121372;27;19923;-43
2021/07/28 04:27:55;;;;;;;;;;;;;;;;;;2128583;27;19923;-43
2021/07/28 04:28:56;;;;;;;;;;;;;;;;;;2131679;27;19974;-43
2021/07/28 04:29:57;;;;;;;;;;;;;;;;;;2127071;27;19934;-43
2021/07/28 04:30:58;;;;;;;;;;;;;;;;;;2124965;27;19930;-43
2021/07/28 04:31:58;;;;;;;;;;;;;;;;;;2123144;28;19929;-43
2021/07/28 04:32:59;;;;;;;;;;;;;;;;;;2121206;27;20465;-43
2021/07/28 04:34:00;;;;;;;;;;;;;;;;;;2129918;27;20034;-43
2021/07/28 04:35:01;;;;;;;;;;;;;;;;;;2131672;27;19937;-43
2021/07/28 04:36:02;;;;;;;;;;;;;;;;;;2124490;27;19924;-43
2021/07/28 04:37:02;;;;;;;;;;;;;;;;;;2130605;27;19923;-43
2021/07/28 04:38:03;;;;;;;;;;;;;;;;;;2131559;27;19976;-43
2021/07/28 04:39:04;;;;;;;;;;;;;;;;;;2123873;27;19923;-43
2021/07/28 04:40:05;;;;;;;;;;;;;;;;;;2131452;27;19930;-43
2021/07/28 04:41:06;;;;;;;;;;;;;;;;;;2131574;27;19923;-43
2021/07/28 04:42:06;;;;;;;;;;;;;;;;;;2123471;27;19927;-44
2021/07/28 04:43:07;;;;;;;;;;;;;;;;;;2131490;27;20366;-43
2021/07/28 04:44:08;;;;;;;;;;;;;;;;;;2131632;27;19923;-45
2021/07/28 04:45:09;;;;;;;;;;;;;;;;;;2124637;27;19923;-43
2021/07/28 04:46:10;;;;;;;;;;;;;;;;;;2114439;28;20452;-43
2021/07/28 04:47:11;;;;;;;;;;;;;;;;;;2114401;28;19931;-43
2021/07/28 04:48:11;;;;;;;;;;;;;;;;;;2123394;27;20013;-43
2021/07/28 04:49:12;;;;;;;;;;;;;;;;;;2123002;28;19923;-43
2021/07/28 04:50:13;;;;;;;;;;;;;;;;;;2123099;28;19923;-46
2021/07/28 04:51:14;;;;;;;;;;;;;;;;;;2123061;27;19930;-45
2021/07/28 04:52:14;;;;;;;;;;;;;;;;;;2129921;27;20408;-45
2021/07/28 04:53:15;;;;;;;;;;;;;;;;;;2130909;27;19923;-45
2021/07/28 04:54:16;;;;;;;;;;;;;;;;;;2123882;27;19931;-45
2021/07/28 04:55:17;;;;;;;;;;;;;;;;;;2131718;27;19927;-46
2021/07/28 04:56:18;;;;;;;;;;;;;;;;;;2130339;27;20332;-45
2021/07/28 04:57:20;;;;;;;;;;;;;;;;;;2123323;27;20093;-48
2021/07/28 04:58:20;;;;;;;;;;;;;;;;;;2123036;28;19958;-47
2021/07/28 04:59:21;;;;;;;;;;;;;;;;;;2122217;27;19930;-46
2021/07/28 05:00:22;;;;;;;;;;;;;;;;;;2125902;27;19971;-46
2021/07/28 05:01:23;;;;;;;;;;;;;;;;;;2131622;27;19923;-45
2021/07/28 05:02:25;;;;;;;;;;;;;;;;;;2127760;27;19927;-46
2021/07/28 05:03:26;;;;;;;;;;;;;;;;;;2126471;27;19946;-46
2021/07/28 05:04:27;;;;;;;;;;;;;;;;;;2131662;27;19933;-46
2021/07/28 05:05:28;;;;;;;;;;;;;;;;;;2126471;27;19972;-46
2021/07/28 05:06:29;;;;;;;;;;;;;;;;;;2124820;27;19923;-45
2021/07/28 05:07:30;;;;;;;;;;;;;;;;;;2122870;28;19923;-46
2021/07/28 05:08:31;;;;;;;;;;;;;;;;;;2120903;27;19930;-46
2021/07/28 05:09:32;;;;;;;;;;;;;;;;;;2129041;27;19923;-45
2021/07/28 05:10:32;;;;;;;;;;;;;;;;;;2131499;27;19944;-46
2021/07/28 05:11:33;;;;;;;;;;;;;;;;;;2125167;27;19923;-47
2021/07/28 05:12:34;;;;;;;;;;;;;;;;;;2129506;27;20029;-45
2021/07/28 05:13:35;;;;;;;;;;;;;;;;;;2131467;27;19966;-45
2021/07/28 05:14:36;;;;;;;;;;;;;;;;;;2124342;27;19929;-46
2021/07/28 05:15:37;;;;;;;;;;;;;;;;;;2130399;27;19927;-46
2021/07/28 05:16:37;;;;;;;;;;;;;;;;;;2131454;27;20056;-46
2021/07/28 05:17:38;;;;;;;;;;;;;;;;;;2122255;27;20054;-46
2021/07/28 05:18:39;;;;;;;;;;;;;;;;;;2122730;27;20269;-46
2021/07/28 05:19:40;;;;;;;;;;;;;;;;;;2122947;28;19923;-46
2021/07/28 05:20:41;;;;;;;;;;;;;;;;;;2120965;27;20410;-46
2021/07/28 05:21:42;;;;;;;;;;;;;;;;;;2131437;27;19922;-46
2021/07/28 05:22:42;;;;;;;;;;;;;;;;;;2131480;27;20009;-46
2021/07/28 05:23:44;;;;;;;;;;;;;;;;;;2124445;27;19922;-46
2021/07/28 05:24:45;;;;;;;;;;;;;;;;;;2114393;28;19955;-46
2021/07/28 05:25:46;;;;;;;;;;;;;;;;;;2114376;28;19951;-46
2021/07/28 05:26:47;;;;;;;;;;;;;;;;;;2122234;27;19931;-45
2021/07/28 05:27:47;;;;;;;;;;;;;;;;;;2122731;28;19923;-45
2021/07/28 05:28:48;;;;;;;;;;;;;;;;;;2122899;28;19991;-46
2021/07/28 05:29:49;;;;;;;;;;;;;;;;;;2122687;27;19983;-46
2021/07/28 05:30:50;;;;;;;;;;;;;;;;;;2122835;28;19924;-45
2021/07/28 05:31:51;;;;;;;;;;;;;;;;;;2122545;27;19975;-46
2021/07/28 05:32:51;;;;;;;;;;;;;;;;;;2124829;27;20299;-45
2021/07/28 05:33:52;;;;;;;;;;;;;;;;;;2131340;27;19930;-45
2021/07/28 05:34:53;;;;;;;;;;;;;;;;;;2129922;27;20005;-46
2021/07/28 05:35:54;;;;;;;;;;;;;;;;;;2123093;27;19930;-46
2021/07/28 05:36:57;;;;;;;;;;;;;;;;;;2122777;28;19924;-46
2021/07/28 05:37:58;;;;;;;;;;;;;;;;;;2121599;27;19976;-46
2021/07/28 05:38:58;;;;;;;;;;;;;;;;;;2125058;27;19990;-46
2021/07/28 05:39:59;;;;;;;;;;;;;;;;;;2122723;28;19923;-46
2021/07/28 05:41:00;;;;;;;;;;;;;;;;;;2120784;27;19923;-47
2021/07/28 05:42:01;;;;;;;;;;;;;;;;;;2127511;27;19975;-46
2021/07/28 05:43:02;;;;;;;;;;;;;;;;;;2131192;27;19923;-46
2021/07/28 05:44:07;;;;;;;;;;;;;;;;;;2126116;27;19930;-45
2021/07/28 05:45:07;;;;;;;;;;;;;;;;;;2127985;27;20037;-46
2021/07/28 05:46:08;;;;;;;;;;;;;;;;;;2131293;27;19929;-47
2021/07/28 05:47:09;;;;;;;;;;;;;;;;;;2124801;27;19924;-46
2021/07/28 05:48:10;;;;;;;;;;;;;;;;;;2129506;27;19923;-46
2021/07/28 05:49:11;;;;;;;;;;;;;;;;;;2131366;27;20298;-46
2021/07/28 05:50:12;;;;;;;;;;;;;;;;;;2124228;27;20361;-45
2021/07/28 05:51:12;;;;;;;;;;;;;;;;;;2130228;27;20336;-45
2021/07/28 05:52:13;;;;;;;;;;;;;;;;;;2129541;27;19923;-46
2021/07/28 05:53:14;;;;;;;;;;;;;;;;;;2123333;27;20413;-46
2021/07/28 05:54:15;;;;;;;;;;;;;;;;;;2130804;27;20025;-45
2021/07/28 05:55:16;;;;;;;;;;;;;;;;;;2131234;27;19923;-46
2021/07/28 05:56:16;;;;;;;;;;;;;;;;;;2123157;27;19949;-46
2021/07/28 05:57:17;;;;;;;;;;;;;;;;;;2130967;27;20009;-46
2021/07/28 05:58:18;;;;;;;;;;;;;;;;;;2131417;27;20361;-46
2021/07/28 05:59:19;;;;;;;;;;;;;;;;;;2123012;27;19923;-45
2021/07/28 06:00:20;;;;;;;;;;;;;;;;;;2131086;27;19923;-45
2021/07/28 06:01:20;;;;;;;;;;;;;;;;;;2131176;27;19927;-46
2021/07/28 06:02:22;;;;;;;;;;;;;;;;;;2122857;27;19923;-45
2021/07/28 06:03:22;;;;;;;;;;;;;;;;;;2131355;27;19934;-45
2021/07/28 06:04:23;;;;;;;;;;;;;;;;;;2131220;27;19923;-46
2021/07/28 06:05:24;;;;;;;;;;;;;;;;;;2122755;27;19949;-47
2021/07/28 06:06:29;;;;;;;;;;;;;;;;;;2131101;27;20406;-47
2021/07/28 06:07:29;;;;;;;;;;;;;;;;;;2129971;27;19923;-46
2021/07/28 06:08:31;;;;;;;;;;;;;;;;;;2122830;27;20015;-46
2021/07/28 06:09:31;;;;;;;;;;;;;;;;;;2122688;28;20452;-46
2021/07/28 06:10:32;;;;;;;;;;;;;;;;;;2122368;27;20296;-47
2021/07/28 06:11:33;;;;;;;;;;;;;;;;;;2126266;27;19923;-46
2021/07/28 06:12:34;;;;;;;;;;;;;;;;;;2130930;27;19923;-46
2021/07/28 06:13:35;;;;;;;;;;;;;;;;;;2124202;27;19931;-46
2021/07/28 06:14:35;;;;;;;;;;;;;;;;;;2126291;27;20335;-46
2021/07/28 06:15:36;;;;;;;;;;;;;;;;;;2131097;27;19976;-46
2021/07/28 06:16:39;;;;;;;;;;;;;;;;;;2126886;27;20022;-44
2021/07/28 06:17:40;;;;;;;;;;;;;;;;;;2124182;27;20399;-43
2021/07/28 06:18:40;;;;;;;;;;;;;;;;;;2122586;28;19923;-44
2021/07/28 06:19:42;;;;;;;;;;;;;;;;;;2120653;27;19931;-44
2021/07/28 06:20:43;;;;;;;;;;;;;;;;;;2127584;27;19959;-44
2021/07/28 06:21:44;;;;;;;;;;;;;;;;;;2131003;27;19970;-44
2021/07/28 06:22:45;;;;;;;;;;;;;;;;;;2125261;27;19928;-44
2021/07/28 06:23:46;;;;;;;;;;;;;;;;;;2123744;27;19923;-44
2021/07/28 06:24:46;;;;;;;;;;;;;;;;;;2122532;28;20699;-44
2021/07/28 06:25:47;;;;;;;;;;;;;;;;;;2120419;27;19928;-46
2021/07/28 06:26:48;;;;;;;;;;;;;;;;;;2129878;27;20418;-44
2021/07/28 06:27:50;;;;;;;;;;;;;;;;;;2131109;27;20288;-44
2021/07/28 06:28:50;;;;;;;;;;;;;;;;;;2125301;27;19969;-44
2021/07/28 06:29:51;;;;;;;;;;;;;;;;;;2122759;27;19923;-45
2021/07/28 06:30:54;;;;;;;;;;;;;;;;;;2123946;28;19923;-43
2021/07/28 06:31:55;;;;;;;;;;;;;;;;;;2124171;27;19931;-44
2021/07/28 06:32:56;;;;;;;;;;;;;;;;;;2123607;27;19927;-44
2021/07/28 06:33:57;;;;;;;;;;;;;;;;;;2124030;28;20453;-44
2021/07/28 06:34:58;;;;;;;;;;;;;;;;;;2123948;27;19926;-44
2021/07/28 06:35:58;;;;;;;;;;;;;;;;;;2123894;28;19923;-43
2021/07/28 06:36:59;;;;;;;;;;;;;;;;;;2123898;28;19923;-43
2021/07/28 06:38:00;;;;;;;;;;;;;;;;;;2123682;27;19923;-43
2021/07/28 06:39:01;;;;;;;;;;;;;;;;;;2124003;28;20431;-44
2021/07/28 06:40:02;;;;;;;;;;;;;;;;;;2123937;28;19924;-44
2021/07/28 06:41:02;;;;;;;;;;;;;;;;;;2122787;27;20014;-44
2021/07/28 06:42:03;;;;;;;;;;;;;;;;;;2123851;28;19923;-44
2021/07/28 06:43:04;;;;;;;;;;;;;;;;;;2123401;27;20368;-44
2021/07/28 06:44:05;;;;;;;;;;;;;;;;;;2125107;27;19923;-44
2021/07/28 06:45:06;;;;;;;;;;;;;;;;;;2132419;27;20412;-45
2021/07/28 06:46:06;;;;;;;;;;;;;;;;;;2130882;27;19927;-43
2021/07/28 06:47:07;;;;;;;;;;;;;;;;;;2123939;27;20424;-43
2021/07/28 06:48:08;;;;;;;;;;;;;;;;;;2123956;28;19968;-44
2021/07/28 06:49:09;;;;;;;;;;;;;;;;;;2122936;27;20014;-45
2021/07/28 06:50:10;;;;;;;;;;;;;;;;;;2127016;27;20413;-43
2021/07/28 06:51:11;;;;;;;;;;;;;;;;;;2132349;27;19943;-43
2021/07/28 06:52:11;;;;;;;;;;;;;;;;;;2127776;27;19927;-43
2021/07/28 06:53:12;;;;;;;;;;;;;;;;;;2129472;27;20317;-43
2021/07/28 06:54:13;;;;;;;;;;;;;;;;;;2132459;27;19922;-44
2021/07/28 06:55:14;;;;;;;;;;;;;;;;;;2127499;27;20185;-43
2021/07/28 06:56:15;;;;;;;;;;;;;;;;;;2129202;27;20066;-44
2021/07/28 06:57:16;;;;;;;;;;;;;;;;;;2132449;27;20279;-44
2021/07/28 06:58:16;;;;;;;;;;;;;;;;;;2126610;27;20370;-44
2021/07/28 06:59:17;;;;;;;;;;;;;;;;;;2123579;27;19934;-43